createdAt,value
2023-05-06T00:00:08.214Z,100699.72
2023-05-06T00:03:17.180Z,100706.03
2023-05-06T00:06:19.732Z,100696.13
2023-05-06T00:09:24.075Z,100697.75
2023-05-06T00:12:26.415Z,100709.94
2023-05-06T00:15:30.175Z,100688.69
2023-05-06T00:18:34.318Z,100707.97
2023-05-06T00:21:36.725Z,100702.44
2023-05-06T00:24:39.194Z,100704.00
2023-05-06T00:27:41.534Z,100715.00
2023-05-06T00:30:43.970Z,100708.72
2023-05-06T00:33:46.419Z,100701.69
2023-05-06T00:36:48.837Z,100708.31
2023-05-06T00:39:51.197Z,100696.19
2023-05-06T00:42:53.482Z,100695.34
2023-05-06T00:45:55.951Z,100693.78
2023-05-06T00:48:58.468Z,100689.09
2023-05-06T00:52:01.395Z,100696.50
2023-05-06T00:55:03.872Z,100689.06
2023-05-06T00:58:06.583Z,100702.44
2023-05-06T01:01:08.904Z,100696.94
2023-05-06T01:04:12.377Z,100693.00
2023-05-06T01:07:24.904Z,100698.88
2023-05-06T01:10:43.089Z,100699.28
2023-05-06T01:14:17.930Z,100699.28
2023-05-06T01:17:21.155Z,100695.75
2023-05-06T01:20:23.889Z,100686.75
2023-05-06T01:23:26.238Z,100687.94
2023-05-06T01:26:28.722Z,100691.81
2023-05-06T01:29:31.218Z,100690.25
2023-05-06T01:33:03.981Z,100689.47
2023-05-06T01:37:00.359Z,100686.72
2023-05-06T01:40:04.065Z,100667.47
2023-05-06T01:43:07.965Z,100675.72
2023-05-06T01:46:14.043Z,100670.56
2023-05-06T01:49:17.360Z,100678.09
2023-05-06T01:52:21.984Z,100678.06
2023-05-06T01:55:24.424Z,100672.22
2023-05-06T01:58:26.886Z,100674.56
2023-05-06T02:01:29.370Z,100673.75
2023-05-06T02:04:32.375Z,100676.88
2023-05-06T02:07:35.386Z,100687.44
2023-05-06T02:10:37.872Z,100683.06
2023-05-06T02:13:43.768Z,100695.22
2023-05-06T02:16:46.731Z,100679.91
2023-05-06T02:19:49.834Z,100681.06
2023-05-06T02:22:52.267Z,100698.34
2023-05-06T02:25:54.703Z,100691.25
2023-05-06T02:28:57.116Z,100694.81
2023-05-06T02:31:59.522Z,100692.06
2023-05-06T02:35:02.110Z,100690.50
2023-05-06T02:38:04.611Z,100693.25
2023-05-06T02:41:06.958Z,100687.31
2023-05-06T02:44:09.350Z,100691.69
2023-05-06T02:47:11.884Z,100685.38
2023-05-06T02:50:14.257Z,100691.22
2023-05-06T02:53:16.700Z,100683.72
2023-05-06T02:56:19.020Z,100701.81
2023-05-06T02:59:22.189Z,100699.47
2023-05-06T03:02:24.552Z,100684.13
2023-05-06T03:05:27.263Z,100690.84
2023-05-06T03:08:29.636Z,100692.78
2023-05-06T03:11:32.820Z,100689.28
2023-05-06T03:14:39.224Z,100686.16
2023-05-06T03:17:41.632Z,100679.47
2023-05-06T03:20:45.039Z,100675.09
2023-05-06T03:23:47.352Z,100683.38
2023-05-06T03:26:50.618Z,100680.66
2023-05-06T03:29:53.409Z,100656.38
2023-05-06T03:33:01.242Z,100656.81
2023-05-06T03:36:06.966Z,100646.22
2023-05-06T03:39:10.769Z,100625.00
2023-05-06T03:42:14.979Z,100634.47
2023-05-06T03:45:17.820Z,100641.13
2023-05-06T03:48:21.857Z,100643.06
2023-05-06T03:51:24.792Z,100664.25
2023-05-06T03:54:27.784Z,100663.09
2023-05-06T03:57:30.478Z,100670.13
2023-05-06T04:00:33.128Z,100662.97
2023-05-06T04:03:35.724Z,100675.94
2023-05-06T04:06:38.267Z,100692.38
2023-05-06T04:09:40.722Z,100683.31
2023-05-06T04:12:44.182Z,100695.06
2023-05-06T04:15:49.083Z,100702.19
2023-05-06T04:18:57.666Z,100704.91
2023-05-06T04:22:00.663Z,100706.88
2023-05-06T04:25:03.190Z,100722.19
2023-05-06T04:28:06.723Z,100719.06
2023-05-06T04:31:10.865Z,100713.22
2023-05-06T04:34:21.931Z,100712.06
2023-05-06T04:37:24.600Z,100699.13
2023-05-06T04:40:35.483Z,100717.19
2023-05-06T04:43:38.744Z,100711.72
2023-05-06T04:46:47.624Z,100716.44
2023-05-06T04:49:51.297Z,100716.44
2023-05-06T04:52:53.949Z,100722.28
2023-05-06T04:55:56.828Z,100732.91
2023-05-06T04:58:59.315Z,100729.38
2023-05-06T05:02:02.565Z,100732.53
2023-05-06T05:05:05.380Z,100731.75
2023-05-06T05:08:09.554Z,100733.31
2023-05-06T05:11:12.900Z,100714.50
2023-05-06T05:14:16.027Z,100704.31
2023-05-06T05:17:18.855Z,100703.53
2023-05-06T05:20:24.041Z,100719.22
2023-05-06T05:23:26.621Z,100715.41
2023-05-06T05:26:28.999Z,100713.88
2023-05-06T05:29:33.383Z,100722.97
2023-05-06T05:32:39.077Z,100718.00
2023-05-06T05:35:41.548Z,100721.19
2023-05-06T05:38:43.978Z,100710.25
2023-05-06T05:41:46.769Z,100711.06
2023-05-06T05:44:50.031Z,100726.78
2023-05-06T05:47:54.152Z,100722.91
2023-05-06T05:50:57.985Z,100721.41
2023-05-06T05:54:00.836Z,100719.47
2023-05-06T05:57:03.973Z,100710.44
2023-05-06T06:00:07.629Z,100721.06
2023-05-06T06:03:19.437Z,100725.06
2023-05-06T06:06:21.890Z,100722.38
2023-05-06T06:09:25.037Z,100691.78
2023-05-06T06:12:28.283Z,100716.25
2023-05-06T06:15:31.702Z,100721.00
2023-05-06T06:18:34.197Z,100710.47
2023-05-06T06:21:36.909Z,100705.81
2023-05-06T06:24:39.467Z,100719.19
2023-05-06T06:27:41.825Z,100714.56
2023-05-06T06:30:44.258Z,100711.47
2023-05-06T06:33:47.191Z,100715.81
2023-05-06T06:36:49.601Z,100703.69
2023-05-06T06:39:51.916Z,100695.41
2023-05-06T06:42:54.652Z,100717.78
2023-05-06T06:46:16.081Z,100696.59
2023-05-06T06:49:18.490Z,100702.88
2023-05-06T06:52:20.895Z,100712.69
2023-05-06T06:55:23.298Z,100685.63
2023-05-06T06:58:25.671Z,100686.81
2023-05-06T07:01:28.041Z,100703.34
2023-05-06T07:04:30.877Z,100695.50
2023-05-06T07:07:33.265Z,100701.03
2023-05-06T07:10:36.518Z,100703.00
2023-05-06T07:13:39.037Z,100701.47
2023-05-06T07:16:42.100Z,100706.50
2023-05-06T07:19:45.263Z,100694.69
2023-05-06T07:22:47.651Z,100702.50
2023-05-06T07:25:50.054Z,100704.41
2023-05-06T07:28:52.573Z,100707.09
2023-05-06T07:31:54.924Z,100695.72
2023-05-06T07:34:57.251Z,100705.47
2023-05-06T07:37:59.672Z,100689.72
2023-05-06T07:41:02.125Z,100704.25
2023-05-06T07:44:04.784Z,100689.72
2023-05-06T07:47:07.399Z,100669.38
2023-05-06T07:50:10.675Z,100699.63
2023-05-06T07:53:13.976Z,100692.97
2023-05-06T07:56:16.373Z,100692.16
2023-05-06T07:59:18.928Z,100689.00
2023-05-06T08:02:21.346Z,100675.69
2023-05-06T08:05:23.674Z,100694.56
2023-05-06T08:08:28.894Z,100698.16
2023-05-06T08:11:31.499Z,100686.41
2023-05-06T08:14:33.844Z,100703.69
2023-05-06T08:17:36.323Z,100681.72
2023-05-06T08:20:39.114Z,100698.22
2023-05-06T08:23:41.448Z,100699.81
2023-05-06T08:26:43.832Z,100703.31
2023-05-06T08:29:46.199Z,100700.97
2023-05-06T08:32:48.582Z,100696.25
2023-05-06T08:35:51.042Z,100694.31
2023-05-06T08:38:53.414Z,100694.72
2023-05-06T08:41:56.531Z,100687.66
2023-05-06T08:44:59.947Z,100666.84
2023-05-06T08:48:02.611Z,100682.94
2023-05-06T08:51:05.453Z,100677.47
2023-05-06T08:54:08.075Z,100659.00
2023-05-06T08:57:12.548Z,100674.31
2023-05-06T09:00:15.819Z,100671.19
2023-05-06T09:03:18.335Z,100671.97
2023-05-06T09:06:21.287Z,100658.63
2023-05-06T09:09:23.675Z,100666.47
2023-05-06T09:12:26.455Z,100660.19
2023-05-06T09:15:39.791Z,100668.84
2023-05-06T09:18:42.563Z,100664.13
2023-05-06T09:21:47.293Z,100662.56
2023-05-06T09:24:56.927Z,100659.81
2023-05-06T09:28:10.220Z,100649.22
2023-05-06T09:31:14.890Z,100647.25
2023-05-06T09:34:18.153Z,100647.63
2023-05-06T09:37:21.140Z,100641.00
2023-05-06T09:40:24.507Z,100635.13
2023-05-06T09:43:26.908Z,100624.91
2023-05-06T09:46:29.496Z,100625.72
2023-05-06T09:49:32.352Z,100621.78
2023-05-06T09:52:35.282Z,100614.72
2023-05-06T09:55:37.973Z,100610.41
2023-05-06T09:58:40.650Z,100613.13
2023-05-06T10:01:43.098Z,100600.97
2023-05-06T10:04:46.582Z,100605.28
2023-05-06T10:07:49.938Z,100604.50
2023-05-06T10:11:10.744Z,100600.19
2023-05-06T10:14:13.130Z,100588.81
2023-05-06T10:17:16.523Z,100594.69
2023-05-06T10:20:19.589Z,100582.53
2023-05-06T10:23:26.971Z,100585.66
2023-05-06T10:26:31.076Z,100579.78
2023-05-06T10:29:36.257Z,100562.16
2023-05-06T10:32:42.187Z,100578.63
2023-05-06T10:35:53.411Z,100571.16
2023-05-06T10:38:57.527Z,100553.50
2023-05-06T10:42:02.417Z,100567.63
2023-05-06T10:45:06.011Z,100569.97
2023-05-06T10:48:14.769Z,100573.13
2023-05-06T10:51:17.175Z,100566.06
2023-05-06T10:54:20.499Z,100565.28
2023-05-06T10:57:26.938Z,100564.88
2023-05-06T11:00:34.138Z,100561.38
2023-05-06T11:03:36.567Z,100556.66
2023-05-06T11:06:46.252Z,100552.72
2023-05-06T11:09:56.385Z,100553.91
2023-05-06T11:12:59.143Z,100543.31
2023-05-06T11:16:03.998Z,100548.03
2023-05-06T11:19:06.453Z,100558.22
2023-05-06T11:22:08.904Z,100524.50
2023-05-06T11:25:11.327Z,100543.72
2023-05-06T11:28:14.926Z,100547.25
2023-05-06T11:31:17.780Z,100542.16
2023-05-06T11:34:26.218Z,100548.44
2023-05-06T11:37:29.758Z,100549.22
2023-05-06T11:40:32.386Z,100550.81
2023-05-06T11:43:34.902Z,100533.53
2023-05-06T11:46:37.416Z,100555.88
2023-05-06T11:49:43.369Z,100550.00
2023-05-06T11:52:45.737Z,100543.34
2023-05-06T11:55:49.797Z,100552.38
2023-05-06T11:58:52.312Z,100544.13
2023-05-06T12:01:57.084Z,100552.75
2023-05-06T12:05:02.998Z,100555.09
2023-05-06T12:08:13.329Z,100547.28
2023-05-06T12:11:22.621Z,100554.72
2023-05-06T12:14:25.208Z,100553.16
2023-05-06T12:17:27.543Z,100548.06
2023-05-06T12:20:29.986Z,100540.59
2023-05-06T12:23:32.463Z,100550.81
2023-05-06T12:26:45.804Z,100538.66
2023-05-06T12:29:54.363Z,100543.75
2023-05-06T12:33:01.003Z,100543.75
2023-05-06T12:36:07.466Z,100540.63
2023-05-06T12:39:11.809Z,100550.03
2023-05-06T12:42:20.494Z,100548.06
2023-05-06T12:45:23.201Z,100546.50
2023-05-06T12:48:25.578Z,100531.59
2023-05-06T12:51:28.899Z,100558.25
2023-05-06T12:54:31.651Z,100554.72
2023-05-06T12:57:34.019Z,100548.06
2023-05-06T13:00:36.365Z,100559.84
2023-05-06T13:03:41.044Z,100562.56
2023-05-06T13:06:43.607Z,100566.50
2023-05-06T13:09:46.291Z,100542.97
2023-05-06T13:12:48.810Z,100561.00
2023-05-06T13:15:53.135Z,100573.94
2023-05-06T13:18:55.613Z,100588.84
2023-05-06T13:21:58.811Z,100578.66
2023-05-06T13:25:01.676Z,100572.38
2023-05-06T13:28:04.119Z,100585.72
2023-05-06T13:31:06.807Z,100567.66
2023-05-06T13:34:09.160Z,100572.38
2023-05-06T13:37:11.556Z,100574.72
2023-05-06T13:40:14.650Z,100566.88
2023-05-06T13:43:17.584Z,100556.69
2023-05-06T13:46:20.062Z,100566.50
2023-05-06T13:49:22.510Z,100561.41
2023-05-06T13:52:24.826Z,100550.41
2023-05-06T13:55:27.184Z,100547.28
2023-05-06T13:58:29.592Z,100544.94
2023-05-06T14:01:31.975Z,100550.41
2023-05-06T14:04:34.391Z,100548.84
2023-05-06T14:07:38.412Z,100544.94
2023-05-06T14:10:42.678Z,100563.75
2023-05-06T14:13:44.984Z,100553.56
2023-05-06T14:16:47.649Z,100546.09
2023-05-06T14:19:50.016Z,100546.88
2023-05-06T14:22:52.422Z,100562.97
2023-05-06T14:25:54.790Z,100554.72
2023-05-06T14:28:57.222Z,100561.78
2023-05-06T14:31:59.696Z,100557.47
2023-05-06T14:35:02.223Z,100553.56
2023-05-06T14:38:04.679Z,100549.63
2023-05-06T14:41:07.033Z,100524.16
2023-05-06T14:44:09.410Z,100520.63
2023-05-06T14:47:11.741Z,100521.41
2023-05-06T14:50:14.077Z,100536.69
2023-05-06T14:53:16.591Z,100526.13
2023-05-06T14:56:18.947Z,100528.47
2023-05-06T14:59:21.423Z,100521.00
2023-05-06T15:02:23.849Z,100519.44
2023-05-06T15:05:26.508Z,100522.97
2023-05-06T15:08:28.895Z,100510.81
2023-05-06T15:11:32.273Z,100510.44
2023-05-06T15:14:34.654Z,100508.09
2023-05-06T15:17:37.598Z,100502.59
2023-05-06T15:20:40.082Z,100503.38
2023-05-06T15:23:42.432Z,100508.06
2023-05-06T15:26:44.952Z,100489.66
2023-05-06T15:29:47.443Z,100504.94
2023-05-06T15:32:49.863Z,100497.88
2023-05-06T15:35:52.213Z,100504.16
2023-05-06T15:39:00.358Z,100509.25
2023-05-06T15:42:03.070Z,100491.63
2023-05-06T15:45:06.416Z,100498.28
2023-05-06T15:48:08.794Z,100480.66
2023-05-06T15:51:11.258Z,100488.47
2023-05-06T15:54:18.064Z,100494.75
2023-05-06T15:57:20.485Z,100499.84
2023-05-06T16:00:23.274Z,100505.72
2023-05-06T16:03:25.823Z,100495.16
2023-05-06T16:06:28.240Z,100503.38
2023-05-06T16:09:30.655Z,100492.41
2023-05-06T16:12:33.143Z,100493.56
2023-05-06T16:15:35.742Z,100497.88
2023-05-06T16:18:38.119Z,100497.50
2023-05-06T16:21:40.601Z,100499.06
2023-05-06T16:24:42.995Z,100495.16
2023-05-06T16:27:45.312Z,100518.28
2023-05-06T16:30:47.757Z,100506.50
2023-05-06T16:33:50.939Z,100489.66
2023-05-06T16:36:54.408Z,100503.38
2023-05-06T16:39:56.804Z,100507.28
2023-05-06T16:42:59.271Z,100490.03
2023-05-06T16:46:01.609Z,100492.41
2023-05-06T16:49:04.680Z,100496.72
2023-05-06T16:52:07.020Z,100492.41
2023-05-06T16:55:09.635Z,100491.59
2023-05-06T16:58:12.046Z,100513.94
2023-05-06T17:01:14.500Z,100505.72
2023-05-06T17:04:17.019Z,100492.41
2023-05-06T17:07:19.481Z,100494.75
2023-05-06T17:10:22.168Z,100498.63
2023-05-06T17:13:24.632Z,100486.09
2023-05-06T17:16:27.093Z,100477.88
2023-05-06T17:19:29.499Z,100481.38
2023-05-06T17:22:32.152Z,100465.72
2023-05-06T17:28:36.845Z,100483.34
2023-05-06T17:31:39.261Z,100471.97
2023-05-06T17:34:41.747Z,100471.97
2023-05-06T17:37:44.068Z,100472.38
2023-05-06T17:40:46.468Z,100468.06
2023-05-06T17:43:48.841Z,100450.41
2023-05-06T17:46:51.190Z,100463.34
2023-05-06T17:49:53.914Z,100462.56
2023-05-06T17:52:56.313Z,100475.09
2023-05-06T17:55:58.661Z,100478.22
2023-05-06T17:59:02.714Z,100469.59
2023-05-06T18:02:08.508Z,100475.47
2023-05-06T18:05:11.688Z,100465.69
2023-05-06T18:08:14.392Z,100486.06
2023-05-06T18:11:17.473Z,100471.16
2023-05-06T18:14:19.895Z,100478.19
2023-05-06T18:17:22.274Z,100494.66
2023-05-06T18:20:24.718Z,100501.69
2023-05-06T18:23:27.093Z,100497.00
2023-05-06T18:26:43.984Z,100497.00
2023-05-06T18:29:48.429Z,100499.72
2023-05-06T18:32:51.776Z,100509.13
2023-05-06T18:35:54.713Z,100507.97
2023-05-06T18:38:57.151Z,100498.16
2023-05-06T18:41:59.949Z,100497.38
2023-05-06T18:45:04.641Z,100493.06
2023-05-06T18:48:07.087Z,100497.38
2023-05-06T18:51:17.114Z,100507.16
2023-05-06T18:54:19.625Z,100506.38
2023-05-06T18:57:22.600Z,100512.63
2023-05-06T19:00:26.501Z,100507.94
2023-05-06T19:03:29.457Z,100519.66
2023-05-06T19:06:32.581Z,100522.41
2023-05-06T19:09:37.222Z,100529.44
2023-05-06T19:12:39.718Z,100534.53
2023-05-06T19:15:42.204Z,100530.25
2023-05-06T19:18:44.586Z,100519.66
2023-05-06T19:21:46.902Z,100523.19
2023-05-06T19:24:49.217Z,100518.88
2023-05-06T19:27:52.730Z,100534.53
2023-05-06T19:30:55.114Z,100535.31
2023-05-06T19:33:57.559Z,100534.91
2023-05-06T19:36:59.873Z,100530.97
2023-05-06T19:40:03.934Z,100530.59
2023-05-06T19:43:06.418Z,100526.66
2023-05-06T19:46:09.405Z,100526.66
2023-05-06T19:49:11.753Z,100541.53
2023-05-06T19:52:14.152Z,100533.31
2023-05-06T19:55:16.757Z,100547.81
2023-05-06T19:58:19.466Z,100549.38
2023-05-06T20:01:23.976Z,100552.53
2023-05-06T20:04:26.495Z,100550.94
2023-05-06T20:07:28.833Z,100550.16
2023-05-06T20:10:31.192Z,100552.50
2023-05-06T20:13:33.749Z,100552.13
2023-05-06T20:16:36.320Z,100543.50
2023-05-06T20:19:39.094Z,100557.97
2023-05-06T20:22:41.597Z,100556.41
2023-05-06T20:25:43.985Z,100540.72
2023-05-06T20:28:46.422Z,100544.66
2023-05-06T20:31:48.837Z,100545.41
2023-05-06T20:34:51.430Z,100558.72
2023-05-06T20:37:54.643Z,100550.91
2023-05-06T20:40:58.874Z,100556.41
2023-05-06T20:44:01.445Z,100555.59
2023-05-06T20:47:03.899Z,100557.56
2023-05-06T20:50:06.680Z,100555.22
2023-05-06T20:53:09.059Z,100537.53
2023-05-06T20:56:24.753Z,100544.59
2023-05-06T20:59:29.500Z,100543.84
2023-05-06T21:02:32.993Z,100542.25
2023-05-06T21:05:36.730Z,100531.28
2023-05-06T21:08:39.121Z,100538.75
2023-05-06T21:11:41.447Z,100531.72
2023-05-06T21:14:43.809Z,100536.00
2023-05-06T21:17:46.434Z,100531.72
2023-05-06T21:20:49.058Z,100525.44
2023-05-06T21:23:51.712Z,100526.63
2023-05-06T21:26:54.039Z,100517.16
2023-05-06T21:29:56.811Z,100535.63
2023-05-06T21:32:59.229Z,100524.25
2023-05-06T21:36:01.622Z,100520.72
2023-05-06T21:39:12.114Z,100523.47
2023-05-06T21:42:14.552Z,100527.38
2023-05-06T21:45:17.156Z,100534.03
2023-05-06T21:48:19.511Z,100523.84
2023-05-06T21:51:21.885Z,100520.72
2023-05-06T21:54:25.112Z,100506.19
2023-05-06T21:57:27.478Z,100523.84
2023-05-06T22:00:30.211Z,100531.28
2023-05-06T22:03:32.705Z,100521.41
2023-05-06T22:06:35.190Z,100533.59
2023-05-06T22:09:37.779Z,100520.63
2023-05-06T22:12:40.166Z,100528.13
2023-05-06T22:15:43.408Z,100529.69
2023-05-06T22:18:45.892Z,100521.84
2023-05-06T22:21:48.243Z,100523.81
2023-05-06T22:24:50.776Z,100514.34
2023-05-06T22:27:53.120Z,100513.19
2023-05-06T22:30:55.562Z,100511.22
2023-05-06T22:34:03.450Z,100507.28
2023-05-06T22:37:09.824Z,100519.44
2023-05-06T22:40:12.702Z,100529.59
2023-05-06T22:43:15.045Z,100512.75
2023-05-06T22:46:17.447Z,100513.56
2023-05-06T22:49:20.218Z,100526.88
2023-05-06T22:52:22.626Z,100532.34
2023-05-06T22:55:24.953Z,100528.03
2023-05-06T22:58:27.304Z,100530.34
2023-05-06T23:01:33.057Z,100522.53
2023-05-06T23:04:35.433Z,100535.84
2023-05-06T23:07:38.716Z,100535.44
2023-05-06T23:10:41.478Z,100540.56
2023-05-06T23:13:43.819Z,100532.69
2023-05-06T23:16:46.291Z,100530.75
2023-05-06T23:19:48.622Z,100523.28
2023-05-06T23:22:51.072Z,100527.19
2023-05-06T23:25:53.426Z,100516.59
2023-05-06T23:28:55.886Z,100543.66
2023-05-06T23:31:58.220Z,100531.91
2023-05-06T23:35:04.775Z,100533.06
2023-05-06T23:38:07.212Z,100533.06
2023-05-06T23:41:09.573Z,100515.03
2023-05-06T23:44:11.983Z,100528.78
2023-05-06T23:47:14.303Z,100521.72
2023-05-06T23:50:16.649Z,100526.44
2023-05-06T23:53:18.984Z,100524.88
2023-05-06T23:56:21.903Z,100520.53
2023-05-06T23:59:24.262Z,100532.28
